createdAt,value
2019-05-17T00:00:00.993Z,15.54
2019-05-17T00:02:31.620Z,15.51
2019-05-17T00:05:02.207Z,15.29
2019-05-17T00:07:32.857Z,15.25
2019-05-17T00:10:06.773Z,15.36
2019-05-17T00:12:37.679Z,15.48
2019-05-17T00:15:09.130Z,15.49
2019-05-17T00:17:39.734Z,15.52
2019-05-17T00:20:11.933Z,15.44
2019-05-17T00:22:42.544Z,15.48
2019-05-17T00:25:13.447Z,15.42
2019-05-17T00:27:44.030Z,15.25
2019-05-17T00:30:17.298Z,15.25
2019-05-17T00:32:47.809Z,15.42
2019-05-17T00:35:18.380Z,15.49
2019-05-17T00:37:48.966Z,15.54
2019-05-17T00:40:19.630Z,15.58
2019-05-17T00:42:50.223Z,15.58
2019-05-17T00:45:20.804Z,15.60
2019-05-17T00:47:51.396Z,15.63
2019-05-17T00:50:21.976Z,15.64
2019-05-17T00:52:52.587Z,15.50
2019-05-17T00:55:23.265Z,15.56
2019-05-17T00:57:56.813Z,15.55
2019-05-17T01:00:27.968Z,15.50
2019-05-17T01:02:58.678Z,15.56
2019-05-17T01:05:29.465Z,15.50
2019-05-17T01:08:00.250Z,15.52
2019-05-17T01:10:30.932Z,15.51
2019-05-17T01:13:01.616Z,15.57
2019-05-17T01:15:32.272Z,15.50
2019-05-17T01:18:03.277Z,15.28
2019-05-17T01:20:33.974Z,15.15
2019-05-17T01:23:04.525Z,15.21
2019-05-17T01:25:36.723Z,15.35
2019-05-17T01:28:08.376Z,15.42
2019-05-17T01:30:38.964Z,15.49
2019-05-17T01:33:09.623Z,15.48
2019-05-17T01:35:40.293Z,15.43
2019-05-17T01:38:10.891Z,15.28
2019-05-17T01:40:41.486Z,15.19
2019-05-17T01:43:12.085Z,15.21
2019-05-17T01:45:42.669Z,15.39
2019-05-17T01:48:13.304Z,15.46
2019-05-17T01:50:46.483Z,15.57
2019-05-17T01:53:17.177Z,15.62
2019-05-17T01:55:47.756Z,15.61
2019-05-17T01:58:18.417Z,15.67
2019-05-17T02:00:48.973Z,15.64
2019-05-17T02:03:19.575Z,15.64
2019-05-17T02:05:50.156Z,15.52
2019-05-17T02:08:20.837Z,15.36
2019-05-17T02:10:52.605Z,15.33
2019-05-17T02:13:23.198Z,15.23
2019-05-17T02:15:56.278Z,15.33
2019-05-17T02:18:26.711Z,15.44
2019-05-17T02:20:57.389Z,15.27
2019-05-17T02:23:28.932Z,15.36
2019-05-17T02:25:59.530Z,15.38
2019-05-17T02:28:32.178Z,15.39
2019-05-17T02:31:03.661Z,15.41
2019-05-17T02:33:34.303Z,15.41
2019-05-17T02:36:04.929Z,15.45
2019-05-17T02:38:35.513Z,15.51
2019-05-17T02:41:06.172Z,15.59
2019-05-17T02:43:36.741Z,15.52
2019-05-17T02:46:07.327Z,15.45
2019-05-17T02:48:37.907Z,15.41
2019-05-17T02:51:08.494Z,15.44
2019-05-17T02:53:39.076Z,15.32
2019-05-17T02:56:13.503Z,15.30
2019-05-17T02:58:43.888Z,15.43
2019-05-17T03:01:14.716Z,15.41
2019-05-17T03:03:46.734Z,15.40
2019-05-17T03:06:17.334Z,15.30
2019-05-17T03:08:47.980Z,15.27
2019-05-17T03:11:18.572Z,15.26
2019-05-17T03:13:49.132Z,15.31
2019-05-17T03:16:23.361Z,15.40
2019-05-17T03:18:52.976Z,15.28
2019-05-17T03:21:23.796Z,15.38
2019-05-17T03:23:55.358Z,15.44
2019-05-17T03:26:27.422Z,15.18
2019-05-17T03:28:58.012Z,15.20
2019-05-17T03:31:34.498Z,15.32
2019-05-17T03:34:06.272Z,15.40
2019-05-17T03:36:36.100Z,15.43
2019-05-17T03:39:07.522Z,15.45
2019-05-17T03:41:38.083Z,15.62
2019-05-17T03:44:08.669Z,15.62
2019-05-17T03:46:42.354Z,15.59
2019-05-17T03:49:13.119Z,15.65
2019-05-17T03:51:43.874Z,15.69
2019-05-17T03:54:14.442Z,15.69
2019-05-17T03:56:45.024Z,15.75
2019-05-17T03:59:16.112Z,15.76
2019-05-17T04:01:46.673Z,15.73
2019-05-17T04:04:17.337Z,15.77
2019-05-17T04:06:47.853Z,15.78
2019-05-17T04:09:22.240Z,15.72
2019-05-17T04:11:53.657Z,15.78
2019-05-17T04:14:24.129Z,15.66
2019-05-17T04:16:54.719Z,15.59
2019-05-17T04:19:25.337Z,15.59
2019-05-17T04:21:55.985Z,15.62
2019-05-17T04:24:26.765Z,15.64
2019-05-17T04:26:57.607Z,15.57
2019-05-17T04:29:28.307Z,15.67
2019-05-17T04:31:58.939Z,15.69
2019-05-17T04:34:33.242Z,15.66
2019-05-17T04:37:04.435Z,15.59
2019-05-17T04:39:34.514Z,15.56
2019-05-17T04:42:05.182Z,15.64
2019-05-17T04:44:36.001Z,15.79
2019-05-17T04:47:06.721Z,15.79
2019-05-17T04:49:37.332Z,15.80
2019-05-17T04:52:07.976Z,15.77
2019-05-17T04:54:38.556Z,15.84
2019-05-17T04:57:09.313Z,15.92
2019-05-17T04:59:43.153Z,16.17
2019-05-17T05:02:13.283Z,16.36
2019-05-17T05:04:44.466Z,16.19
2019-05-17T05:07:17.945Z,16.38
2019-05-17T05:09:52.249Z,16.51
2019-05-17T05:12:22.859Z,16.35
2019-05-17T05:14:53.765Z,15.94
2019-05-17T05:17:24.670Z,16.01
2019-05-17T05:19:55.348Z,16.12
2019-05-17T05:22:26.024Z,16.56
2019-05-17T05:24:56.637Z,16.86
2019-05-17T05:27:27.214Z,16.95
2019-05-17T05:29:57.896Z,17.19
2019-05-17T05:32:31.638Z,17.48
2019-05-17T05:35:03.150Z,17.47
2019-05-17T05:37:34.271Z,17.59
2019-05-17T05:40:06.967Z,17.62
2019-05-17T05:42:37.639Z,17.96
2019-05-17T05:45:08.662Z,18.36
2019-05-17T05:47:41.566Z,18.78
2019-05-17T05:50:12.897Z,18.86
2019-05-17T05:52:44.054Z,18.92
2019-05-17T05:55:14.883Z,18.84
2019-05-17T05:57:45.514Z,18.38
2019-05-17T06:00:18.196Z,18.91
2019-05-17T06:02:48.850Z,19.00
2019-05-17T06:05:21.772Z,19.19
2019-05-17T06:07:52.284Z,19.07
2019-05-17T06:10:22.920Z,19.07
2019-05-17T06:12:53.499Z,19.19
2019-05-17T06:15:24.342Z,18.92
2019-05-17T06:17:55.026Z,18.54
2019-05-17T06:20:26.674Z,18.18
2019-05-17T06:22:57.385Z,18.07
2019-05-17T06:25:28.015Z,17.82
2019-05-17T06:27:58.596Z,17.87
2019-05-17T06:30:29.201Z,17.86
2019-05-17T06:33:02.254Z,17.91
2019-05-17T06:35:32.619Z,18.02
2019-05-17T06:38:03.361Z,18.18
2019-05-17T06:40:34.320Z,18.26
2019-05-17T06:43:04.942Z,18.28
2019-05-17T06:45:35.552Z,18.02
2019-05-17T06:48:06.329Z,18.08
2019-05-17T06:50:37.005Z,18.20
2019-05-17T06:53:07.717Z,18.06
2019-05-17T06:55:38.308Z,18.22
2019-05-17T06:58:08.892Z,18.17
2019-05-17T07:00:40.423Z,18.29
2019-05-17T07:03:12.275Z,18.67
2019-05-17T07:05:44.907Z,18.85
2019-05-17T07:08:15.490Z,18.35
2019-05-17T07:10:46.485Z,18.65
2019-05-17T07:13:17.135Z,18.80
2019-05-17T07:15:50.262Z,19.07
2019-05-17T07:18:20.093Z,18.99
2019-05-17T07:20:50.700Z,19.09
2019-05-17T07:23:21.293Z,18.63
2019-05-17T07:25:52.012Z,18.36
2019-05-17T07:28:22.609Z,18.29
2019-05-17T07:30:54.653Z,18.31
2019-05-17T07:33:25.307Z,18.06
2019-05-17T07:35:55.888Z,18.15
2019-05-17T07:38:26.474Z,17.99
2019-05-17T07:40:59.375Z,17.95
2019-05-17T07:43:29.805Z,18.09
2019-05-17T07:46:00.685Z,18.22
2019-05-17T07:48:31.604Z,18.22
2019-05-17T07:51:03.430Z,18.29
2019-05-17T07:53:33.914Z,18.34
2019-05-17T07:56:04.520Z,18.38
2019-05-17T07:58:35.393Z,18.35
2019-05-17T08:01:06.819Z,18.45
2019-05-17T08:03:37.395Z,18.46
2019-05-17T08:06:10.618Z,18.50
2019-05-17T08:08:41.711Z,18.49
2019-05-17T08:11:12.391Z,18.63
2019-05-17T08:13:43.078Z,18.74
2019-05-17T08:16:13.676Z,18.87
2019-05-17T08:18:44.253Z,19.14
2019-05-17T08:21:14.844Z,19.32
2019-05-17T08:23:45.548Z,19.40
2019-05-17T08:26:16.125Z,19.01
2019-05-17T08:28:46.914Z,19.02
2019-05-17T08:31:20.022Z,18.97
2019-05-17T08:33:49.959Z,19.02
2019-05-17T08:36:20.793Z,19.02
2019-05-17T08:38:51.375Z,19.00
2019-05-17T08:41:22.063Z,19.17
2019-05-17T08:43:52.664Z,19.25
2019-05-17T08:46:23.328Z,19.24
2019-05-17T08:48:53.912Z,19.06
2019-05-17T08:51:24.541Z,19.09
2019-05-17T08:53:55.119Z,18.90
2019-05-17T08:56:25.728Z,19.12
2019-05-17T08:58:56.315Z,19.28
2019-05-17T09:01:26.909Z,18.91
2019-05-17T09:03:59.677Z,18.63
2019-05-17T09:06:29.808Z,18.68
2019-05-17T09:09:00.935Z,18.77
2019-05-17T09:11:33.021Z,18.72
2019-05-17T09:14:04.379Z,18.79
2019-05-17T09:16:35.072Z,18.83
2019-05-17T09:19:05.656Z,19.32
2019-05-17T09:21:36.747Z,19.41
2019-05-17T09:24:07.428Z,19.58
2019-05-17T09:26:39.922Z,19.51
2019-05-17T09:29:10.887Z,19.70
2019-05-17T09:31:41.536Z,19.43
2019-05-17T09:34:12.127Z,19.43
2019-05-17T09:36:42.748Z,19.45
2019-05-17T09:39:14.644Z,19.38
2019-05-17T09:41:45.199Z,19.62
2019-05-17T09:44:16.577Z,19.12
2019-05-17T09:46:47.260Z,19.27
2019-05-17T09:49:19.266Z,19.42
2019-05-17T09:51:50.004Z,19.64
2019-05-17T09:54:20.637Z,19.64
2019-05-17T09:56:51.530Z,19.75
2019-05-17T09:59:22.101Z,19.80
2019-05-17T10:01:52.759Z,19.97
2019-05-17T10:04:23.394Z,20.01
2019-05-17T10:06:53.998Z,20.10
2019-05-17T10:09:24.606Z,20.10
2019-05-17T10:11:55.188Z,19.85
2019-05-17T10:14:29.048Z,19.88
2019-05-17T10:17:00.311Z,20.05
2019-05-17T10:19:30.563Z,20.24
2019-05-17T10:22:01.448Z,20.14
2019-05-17T10:24:38.166Z,19.98
2019-05-17T10:27:04.545Z,20.19
2019-05-17T10:29:35.167Z,20.46
2019-05-17T10:32:05.769Z,20.46
2019-05-17T10:34:36.371Z,20.66
2019-05-17T10:37:06.958Z,20.71
2019-05-17T10:39:40.982Z,21.02
2019-05-17T10:42:10.120Z,21.13
2019-05-17T10:44:47.196Z,20.83
2019-05-17T10:47:13.267Z,21.15
2019-05-17T10:49:44.270Z,21.35
2019-05-17T10:52:14.879Z,21.14
2019-05-17T10:54:45.445Z,21.46
2019-05-17T10:57:16.022Z,21.59
2019-05-17T10:59:46.668Z,21.50
2019-05-17T11:02:19.669Z,21.43
2019-05-17T11:04:50.594Z,21.13
2019-05-17T11:07:21.419Z,21.21
2019-05-17T11:09:52.102Z,21.34
2019-05-17T11:12:22.823Z,21.47
2019-05-17T11:15:09.658Z,21.19
2019-05-17T11:17:25.692Z,21.10
2019-05-17T11:19:56.280Z,20.97
2019-05-17T11:22:26.867Z,20.84
2019-05-17T11:24:57.486Z,21.00
2019-05-17T11:27:28.082Z,20.97
2019-05-17T11:29:58.661Z,21.02
2019-05-17T11:32:29.302Z,21.04
2019-05-17T11:34:59.861Z,21.12
2019-05-17T11:37:30.667Z,21.26
2019-05-17T11:40:01.446Z,21.34
2019-05-17T11:42:32.024Z,21.43
2019-05-17T11:45:02.610Z,21.70
2019-05-17T11:47:33.247Z,21.76
2019-05-17T11:50:05.828Z,21.65
2019-05-17T11:52:36.596Z,21.51
2019-05-17T11:55:07.541Z,21.42
2019-05-17T11:57:38.125Z,21.38
2019-05-17T12:00:09.955Z,21.37
2019-05-17T12:02:40.544Z,21.12
2019-05-17T12:05:12.161Z,20.97
2019-05-17T12:07:42.842Z,20.68
2019-05-17T12:10:13.894Z,20.46
2019-05-17T12:12:44.464Z,20.43
2019-05-17T12:15:15.252Z,20.31
2019-05-17T12:17:45.845Z,20.27
2019-05-17T12:20:18.982Z,20.05
2019-05-17T12:22:49.565Z,19.98
2019-05-17T12:25:20.428Z,19.64
2019-05-17T12:27:52.479Z,19.36
2019-05-17T12:30:23.323Z,19.36
2019-05-17T12:32:53.909Z,19.29
2019-05-17T12:35:24.499Z,19.25
2019-05-17T12:37:55.104Z,19.31
2019-05-17T12:40:27.232Z,19.30
2019-05-17T12:42:57.809Z,19.35
2019-05-17T12:45:28.416Z,19.45
2019-05-17T12:47:59.308Z,19.40
2019-05-17T12:50:29.945Z,19.47
2019-05-17T12:53:00.506Z,19.55
2019-05-17T12:55:31.089Z,19.58
2019-05-17T12:58:02.226Z,19.65
2019-05-17T13:00:32.793Z,19.80
2019-05-17T13:03:04.351Z,19.97
2019-05-17T13:05:34.944Z,19.95
2019-05-17T13:08:05.786Z,20.28
2019-05-17T13:10:36.414Z,20.41
2019-05-17T13:13:09.556Z,20.61
2019-05-17T13:15:39.297Z,20.39
2019-05-17T13:18:10.127Z,20.64
2019-05-17T13:20:40.709Z,20.60
2019-05-17T13:23:11.310Z,20.90
2019-05-17T13:25:44.735Z,21.18
2019-05-17T13:28:16.262Z,21.15
2019-05-17T13:30:46.886Z,21.28
2019-05-17T13:33:17.662Z,21.38
2019-05-17T13:35:48.267Z,21.28
2019-05-17T13:38:19.502Z,21.51
2019-05-17T13:40:50.118Z,21.47
2019-05-17T13:43:20.909Z,21.33
2019-05-17T13:45:52.759Z,21.57
2019-05-17T13:48:23.326Z,21.81
2019-05-17T13:50:53.919Z,21.78
2019-05-17T13:53:24.537Z,21.55
2019-05-17T13:55:55.203Z,21.52
2019-05-17T13:58:25.925Z,21.31
2019-05-17T14:00:57.467Z,21.21
2019-05-17T14:03:28.092Z,21.19
2019-05-17T14:06:01.733Z,21.11
2019-05-17T14:08:33.285Z,21.04
2019-05-17T14:11:04.227Z,21.14
2019-05-17T14:13:36.429Z,21.21
2019-05-17T14:16:07.373Z,21.43
2019-05-17T14:18:38.095Z,21.61
2019-05-17T14:21:08.930Z,21.87
2019-05-17T14:23:39.626Z,22.01
2019-05-17T14:26:11.941Z,21.93
2019-05-17T14:28:43.575Z,21.68
2019-05-17T14:31:14.551Z,21.46
2019-05-17T14:33:46.521Z,21.55
2019-05-17T14:36:17.393Z,21.69
2019-05-17T14:38:49.199Z,22.00
2019-05-17T14:41:20.071Z,21.93
2019-05-17T14:43:50.967Z,22.12
2019-05-17T14:46:21.684Z,22.09
2019-05-17T14:48:52.384Z,22.27
2019-05-17T14:51:22.956Z,22.27
2019-05-17T14:53:53.587Z,22.16
2019-05-17T14:56:24.171Z,21.66
2019-05-17T14:58:54.945Z,21.75
2019-05-17T15:01:25.735Z,21.74
2019-05-17T15:03:56.305Z,21.73
2019-05-17T15:06:26.972Z,21.90
2019-05-17T15:08:57.481Z,21.76
2019-05-17T15:11:28.191Z,22.07
2019-05-17T15:13:58.781Z,22.05
2019-05-17T15:16:29.364Z,21.87
2019-05-17T15:18:59.974Z,21.81
2019-05-17T15:21:30.793Z,21.83
2019-05-17T15:24:01.406Z,21.75
2019-05-17T15:26:31.965Z,22.09
2019-05-17T15:29:03.581Z,22.00
2019-05-17T15:31:34.205Z,22.08
2019-05-17T15:34:04.912Z,22.02
2019-05-17T15:36:35.474Z,21.84
2019-05-17T15:39:06.925Z,21.76
2019-05-17T15:41:37.602Z,22.03
2019-05-17T15:44:08.206Z,21.98
2019-05-17T15:46:38.862Z,21.81
2019-05-17T15:49:09.546Z,21.31
2019-05-17T15:51:40.233Z,21.58
2019-05-17T15:54:10.811Z,21.66
2019-05-17T15:56:43.029Z,21.67
2019-05-17T15:59:13.606Z,21.55
2019-05-17T16:01:45.233Z,21.72
2019-05-17T16:04:15.891Z,21.45
2019-05-17T16:06:46.577Z,21.20
2019-05-17T16:09:17.523Z,21.28
2019-05-17T16:11:48.101Z,21.18
2019-05-17T16:14:18.704Z,21.41
2019-05-17T16:16:49.292Z,21.21
2019-05-17T16:19:19.879Z,21.09
2019-05-17T16:21:50.568Z,21.09
2019-05-17T16:24:21.165Z,21.21
2019-05-17T16:26:51.993Z,21.05
2019-05-17T16:29:23.573Z,21.10
2019-05-17T16:31:54.253Z,21.37
2019-05-17T16:34:24.961Z,21.05
2019-05-17T16:36:55.587Z,21.05
2019-05-17T16:39:27.166Z,21.13
2019-05-17T16:41:57.733Z,20.92
2019-05-17T16:44:28.349Z,21.18
2019-05-17T16:46:59.087Z,21.18
2019-05-17T16:49:29.648Z,21.48
2019-05-17T16:52:00.416Z,21.07
2019-05-17T16:54:31.114Z,21.12
2019-05-17T16:57:01.724Z,20.72
2019-05-17T16:59:32.308Z,20.72
2019-05-17T17:02:02.923Z,20.99
2019-05-17T17:04:35.025Z,20.95
2019-05-17T17:07:05.874Z,20.89
2019-05-17T17:09:36.704Z,20.97
2019-05-17T17:12:07.409Z,21.06
2019-05-17T17:14:38.956Z,21.02
2019-05-17T17:17:12.130Z,21.13
2019-05-17T17:19:42.095Z,21.04
2019-05-17T17:22:12.839Z,21.29
2019-05-17T17:24:43.521Z,21.34
2019-05-17T17:27:14.256Z,21.26
2019-05-17T17:29:46.325Z,21.57
2019-05-17T17:32:21.579Z,21.22
2019-05-17T17:34:49.432Z,21.17
2019-05-17T17:37:20.685Z,21.21
2019-05-17T17:39:53.320Z,21.15
2019-05-17T17:42:23.803Z,21.35
2019-05-17T17:44:54.461Z,21.40
2019-05-17T17:47:25.050Z,21.41
2019-05-17T17:49:55.712Z,21.41
2019-05-17T17:52:26.287Z,21.38
2019-05-17T17:54:56.860Z,21.33
2019-05-17T17:57:29.135Z,21.32
2019-05-17T17:59:59.916Z,21.20
2019-05-17T18:02:30.709Z,21.27
2019-05-17T18:05:02.292Z,21.09
2019-05-17T18:07:32.952Z,21.40
2019-05-17T18:10:06.463Z,21.30
2019-05-17T18:12:37.151Z,21.37
2019-05-17T18:15:09.654Z,21.18
2019-05-17T18:17:40.280Z,21.00
2019-05-17T18:20:10.830Z,21.19
2019-05-17T18:22:41.431Z,20.94
2019-05-17T18:25:13.718Z,20.98
2019-05-17T18:27:46.197Z,20.65
2019-05-17T18:30:17.130Z,20.65
2019-05-17T18:32:47.735Z,20.63
2019-05-17T18:35:19.339Z,20.82
2019-05-17T18:37:50.485Z,20.71
2019-05-17T18:40:21.168Z,20.52
2019-05-17T18:42:52.130Z,20.52
2019-05-17T18:45:23.487Z,20.62
2019-05-17T18:47:55.075Z,20.47
2019-05-17T18:50:28.576Z,20.68
2019-05-17T18:52:59.308Z,20.55
2019-05-17T18:55:32.141Z,20.15
2019-05-17T18:58:02.875Z,19.97
2019-05-17T19:00:33.561Z,20.07
2019-05-17T19:03:04.376Z,20.12
2019-05-17T19:05:36.589Z,20.46
2019-05-17T19:08:07.222Z,20.03
2019-05-17T19:10:38.318Z,19.95
2019-05-17T19:13:09.102Z,20.02
2019-05-17T19:15:39.840Z,19.16
2019-05-17T19:18:10.600Z,18.54
2019-05-17T19:20:41.703Z,18.09
2019-05-17T19:23:12.398Z,17.84
2019-05-17T19:25:43.250Z,17.66
2019-05-17T19:28:13.955Z,17.62
2019-05-17T19:30:44.755Z,17.52
2019-05-17T19:33:15.486Z,17.50
2019-05-17T19:35:47.946Z,17.50
2019-05-17T19:38:18.591Z,17.43
2019-05-17T19:40:50.046Z,17.38
2019-05-17T19:43:21.792Z,17.37
2019-05-17T19:45:54.094Z,17.39
2019-05-17T19:48:24.903Z,17.40
2019-05-17T19:50:55.689Z,17.30
2019-05-17T19:53:27.530Z,17.32
2019-05-17T19:55:58.222Z,17.24
2019-05-17T19:58:29.112Z,17.21
2019-05-17T20:01:00.109Z,17.18
2019-05-17T20:03:30.897Z,17.20
2019-05-17T20:06:01.980Z,17.14
2019-05-17T20:08:32.801Z,17.10
2019-05-17T20:11:03.481Z,17.10
2019-05-17T20:13:34.303Z,17.06
2019-05-17T20:16:06.767Z,17.07
2019-05-17T20:18:37.935Z,17.00
2019-05-17T20:21:08.914Z,16.93
2019-05-17T20:23:43.660Z,16.90
2019-05-17T20:26:14.184Z,16.85
2019-05-17T20:28:47.582Z,16.83
2019-05-17T20:31:18.430Z,16.81
2019-05-17T20:33:49.039Z,16.70
2019-05-17T20:36:21.668Z,16.76
2019-05-17T20:38:55.085Z,16.81
2019-05-17T20:41:27.467Z,16.82
2019-05-17T20:43:58.139Z,16.75
2019-05-17T20:46:30.627Z,16.73
2019-05-17T20:49:01.222Z,16.67
2019-05-17T20:51:32.608Z,16.70
2019-05-17T20:54:04.957Z,16.70
2019-05-17T20:56:35.551Z,16.67
2019-05-17T20:59:09.236Z,16.67
2019-05-17T21:01:39.834Z,16.53
2019-05-17T21:04:10.402Z,16.60
2019-05-17T21:06:41.203Z,16.62
2019-05-17T21:09:11.935Z,16.55
2019-05-17T21:11:42.525Z,16.51
2019-05-17T21:14:13.672Z,16.52
2019-05-17T21:16:44.570Z,16.54
2019-05-17T21:19:15.325Z,16.51
2019-05-17T21:21:46.136Z,16.45
2019-05-17T21:24:17.048Z,16.39
2019-05-17T21:26:47.714Z,16.51
2019-05-17T21:29:18.635Z,16.37
2019-05-17T21:31:49.210Z,16.41
2019-05-17T21:34:19.806Z,16.41
2019-05-17T21:36:50.574Z,16.40
2019-05-17T21:39:21.172Z,16.44
2019-05-17T21:41:51.933Z,16.42
2019-05-17T21:44:22.537Z,16.47
2019-05-17T21:47:04.163Z,16.37
2019-05-17T21:49:25.627Z,16.35
2019-05-17T21:51:57.117Z,16.38
2019-05-17T21:54:27.735Z,16.39
2019-05-17T21:56:59.520Z,16.33
2019-05-17T21:59:30.068Z,16.33
2019-05-17T22:02:01.858Z,16.38
2019-05-17T22:04:32.465Z,16.38
2019-05-17T22:07:03.132Z,16.30
2019-05-17T22:09:33.790Z,16.38
2019-05-17T22:12:06.023Z,16.41
2019-05-17T22:14:36.607Z,16.37
2019-05-17T22:17:07.271Z,16.33
2019-05-17T22:19:37.857Z,16.33
2019-05-17T22:22:08.415Z,16.29
2019-05-17T22:24:39.141Z,16.14
2019-05-17T22:27:10.018Z,16.10
2019-05-17T22:29:40.666Z,16.16
2019-05-17T22:32:11.285Z,16.10
2019-05-17T22:34:43.515Z,16.10
2019-05-17T22:37:17.345Z,16.10
2019-05-17T22:39:46.369Z,16.07
2019-05-17T22:42:17.060Z,15.98
2019-05-17T22:44:48.288Z,15.99
2019-05-17T22:47:18.973Z,15.95
2019-05-17T22:49:49.567Z,15.93
2019-05-17T22:52:20.279Z,15.89
2019-05-17T22:54:50.857Z,15.84
2019-05-17T22:57:21.601Z,15.81
2019-05-17T22:59:52.616Z,15.83
2019-05-17T23:02:23.439Z,15.86
2019-05-17T23:04:54.123Z,15.72
2019-05-17T23:07:24.801Z,15.58
2019-05-17T23:09:55.561Z,15.60
2019-05-17T23:12:26.342Z,15.50
2019-05-17T23:14:57.017Z,15.52
2019-05-17T23:17:27.737Z,15.49
2019-05-17T23:19:58.411Z,15.46
2019-05-17T23:22:30.156Z,15.37
2019-05-17T23:25:00.737Z,15.38
2019-05-17T23:27:31.688Z,15.41
2019-05-17T23:30:02.369Z,15.56
2019-05-17T23:32:33.051Z,15.65
2019-05-17T23:35:04.607Z,15.61
2019-05-17T23:37:35.557Z,15.59
2019-05-17T23:40:08.571Z,15.55
2019-05-17T23:42:39.153Z,15.48
2019-05-17T23:45:10.177Z,15.57
2019-05-17T23:47:40.756Z,15.67
2019-05-17T23:50:11.570Z,15.74
2019-05-17T23:52:42.149Z,15.72
2019-05-17T23:55:12.803Z,15.56
2019-05-17T23:57:43.381Z,15.65
